Time,TemperatureF,DewpointF,PressureIn,WindDirection,WindDirectionDegrees,WindSpeedMPH,WindSpeedGustMPH,Humidity,HourlyPrecipIn,Conditions,Clouds,dailyrainin,SolarRadiationWatts/m^2,SoftwareType,DateUTC
2013-01-11 00:02:00,22.0,18.0,-100.00,SSW,203,0.0,0.0,85,0.00,,,0.00,0.000000,,2013-01-11 07:02:00,
2013-01-11 00:12:00,22.0,18.0,-100.00,SSW,203,0.0,0.0,85,0.00,,,0.00,0.000000,,2013-01-11 07:12:00,
2013-01-11 00:22:00,22.0,18.0,-100.00,SSW,203,0.0,0.0,85,0.00,,,0.00,0.000000,,2013-01-11 07:22:00,
2013-01-11 00:32:00,22.0,18.0,-100.00,SSW,203,0.0,0.0,85,0.00,,,0.00,0.000000,,2013-01-11 07:32:00,
2013-01-11 00:42:00,21.0,17.0,-100.00,SSE,149,0.0,0.0,84,0.00,,,0.00,0.000000,,2013-01-11 07:42:00,
2013-01-11 01:02:00,21.0,17.0,-100.00,SSE,149,0.0,0.0,84,0.00,,,0.00,0.000000,,2013-01-11 08:02:00,
2013-01-11 01:12:00,21.0,17.0,-100.00,SSE,149,0.0,0.0,84,0.00,,,0.00,0.000000,,2013-01-11 08:12:00,
2013-01-11 01:22:00,21.0,17.0,-100.00,SSE,149,0.0,0.0,84,0.00,,,0.00,0.000000,,2013-01-11 08:22:00,
2013-01-11 01:32:00,21.0,17.0,-100.00,SSE,149,0.0,0.0,84,0.00,,,0.00,0.000000,,2013-01-11 08:32:00,
2013-01-11 01:42:00,21.0,16.0,-100.00,NNE,16,0.0,0.0,81,0.00,,,0.00,0.000000,,2013-01-11 08:42:00,
2013-01-11 02:02:00,21.0,16.0,-100.00,NNE,16,0.0,0.0,81,0.00,,,0.00,0.000000,,2013-01-11 09:02:00,
2013-01-11 02:12:00,21.0,16.0,-100.00,NNE,16,0.0,0.0,81,0.00,,,0.00,0.000000,,2013-01-11 09:12:00,
2013-01-11 02:22:00,21.0,16.0,-100.00,NNE,16,0.0,0.0,81,0.00,,,0.00,0.000000,,2013-01-11 09:22:00,
2013-01-11 02:32:00,21.0,16.0,-100.00,NNE,16,0.0,0.0,81,0.00,,,0.00,0.000000,,2013-01-11 09:32:00,
2013-01-11 02:42:00,20.0,16.0,-100.00,North,355,0.0,0.0,83,0.00,,,0.00,0.000000,,2013-01-11 09:42:00,
2013-01-11 03:02:00,20.0,16.0,-100.00,North,355,0.0,0.0,83,0.00,,,0.00,0.000000,,2013-01-11 10:02:00,
2013-01-11 03:12:00,20.0,16.0,-100.00,North,355,0.0,0.0,83,0.00,,,0.00,0.000000,,2013-01-11 10:12:00,
2013-01-11 03:22:00,20.0,16.0,-100.00,North,355,0.0,0.0,83,0.00,,,0.00,0.000000,,2013-01-11 10:22:00,
2013-01-11 03:32:00,20.0,16.0,-100.00,North,355,0.0,0.0,83,0.00,,,0.00,0.000000,,2013-01-11 10:32:00,
2013-01-11 03:42:00,21.0,16.0,-100.00,North,356,0.0,0.0,82,0.00,,,0.00,0.000000,,2013-01-11 10:42:00,
2013-01-11 04:02:00,21.0,16.0,-100.00,North,356,0.0,0.0,82,0.00,,,0.00,0.000000,,2013-01-11 11:02:00,
2013-01-11 04:12:00,21.0,16.0,-100.00,North,356,0.0,0.0,82,0.00,,,0.00,0.000000,,2013-01-11 11:12:00,
2013-01-11 04:22:00,21.0,16.0,-100.00,North,356,0.0,0.0,82,0.00,,,0.00,0.000000,,2013-01-11 11:22:00,
2013-01-11 04:32:00,21.0,16.0,-100.00,North,356,0.0,0.0,82,0.00,,,0.00,0.000000,,2013-01-11 11:32:00,
2013-01-11 04:42:00,22.0,16.0,-100.00,WNW,282,0.0,0.0,76,0.00,,,0.00,0.000000,,2013-01-11 11:42:00,
2013-01-11 05:03:00,22.0,16.0,-100.00,WNW,282,0.0,0.0,76,0.00,,,0.00,0.000000,,2013-01-11 12:03:00,
2013-01-11 05:12:00,22.0,16.0,-100.00,WNW,282,0.0,0.0,76,0.00,,,0.00,0.000000,,2013-01-11 12:12:00,
2013-01-11 05:22:00,22.0,16.0,-100.00,WNW,282,0.0,0.0,76,0.00,,,0.00,0.000000,,2013-01-11 12:22:00,
2013-01-11 05:32:00,22.0,16.0,-100.00,WNW,282,0.0,0.0,76,0.00,,,0.00,0.000000,,2013-01-11 12:32:00,
2013-01-11 05:42:00,21.0,14.0,-100.00,NNE,19,0.0,0.0,74,0.00,,,-99.99,0.000000,,2013-01-11 12:42:00,
2013-01-11 06:02:00,21.0,14.0,-100.00,NNE,19,0.0,0.0,74,0.00,,,-99.99,0.000000,,2013-01-11 13:02:00,
2013-01-11 06:12:00,21.0,14.0,-100.00,NNE,19,0.0,0.0,74,0.00,,,-99.99,0.000000,,2013-01-11 13:12:00,
2013-01-11 06:22:00,21.0,14.0,-100.00,NNE,19,0.0,0.0,74,0.00,,,-99.99,0.000000,,2013-01-11 13:22:00,
2013-01-11 06:32:00,21.0,14.0,-100.00,NNE,19,0.0,0.0,74,0.00,,,-99.99,0.000000,,2013-01-11 13:32:00,
2013-01-11 06:42:00,20.0,11.0,-100.00,NNW,345,0.0,0.0,69,0.00,,,-99.99,0.000000,,2013-01-11 13:42:00,
2013-01-11 07:03:00,20.0,11.0,-100.00,NNW,345,0.0,0.0,69,0.00,,,-99.99,0.000000,,2013-01-11 14:03:00,
2013-01-11 07:12:00,20.0,11.0,-100.00,NNW,345,0.0,0.0,69,0.00,,,-99.99,0.000000,,2013-01-11 14:12:00,
2013-01-11 07:22:00,20.0,11.0,-100.00,NNW,345,0.0,0.0,69,0.00,,,-99.99,0.000000,,2013-01-11 14:22:00,
2013-01-11 07:33:00,20.0,11.0,-100.00,NNW,345,0.0,0.0,69,0.00,,,-99.99,0.000000,,2013-01-11 14:33:00,
2013-01-11 07:42:00,19.0,10.0,-100.00,North,356,0.0,0.0,68,0.00,,,0.00,0.000000,,2013-01-11 14:42:00,
2013-01-11 08:03:00,19.0,10.0,-100.00,North,356,0.0,0.0,68,0.00,,,0.00,0.000000,,2013-01-11 15:03:00,
2013-01-11 08:12:00,19.0,10.0,-100.00,North,356,0.0,0.0,68,0.00,,,0.00,0.000000,,2013-01-11 15:12:00,
2013-01-11 08:23:00,19.0,10.0,-100.00,North,356,0.0,0.0,68,0.00,,,0.00,0.000000,,2013-01-11 15:23:00,
2013-01-11 08:32:00,19.0,10.0,-100.00,North,356,0.0,0.0,68,0.00,,,0.00,0.000000,,2013-01-11 15:32:00,
2013-01-11 08:42:00,18.0,10.0,-100.00,North,359,0.0,0.0,71,0.00,,,0.00,1.000000,,2013-01-11 15:42:00,
2013-01-11 09:02:00,18.0,10.0,-100.00,North,359,0.0,0.0,71,0.00,,,0.00,1.000000,,2013-01-11 16:02:00,
2013-01-11 09:12:00,18.0,10.0,-100.00,North,359,0.0,0.0,71,0.00,,,0.00,1.000000,,2013-01-11 16:12:00,
2013-01-11 09:22:00,18.0,10.0,-100.00,North,359,0.0,0.0,71,0.00,,,0.00,1.000000,,2013-01-11 16:22:00,
2013-01-11 09:32:00,18.0,10.0,-100.00,North,359,0.0,0.0,71,0.00,,,0.00,1.000000,,2013-01-11 16:32:00,
2013-01-11 09:42:00,21.0,12.0,-100.00,NNE,29,0.0,0.0,68,0.00,,,0.00,10.000000,,2013-01-11 16:42:00,
2013-01-11 10:03:00,21.0,12.0,-100.00,NNE,29,0.0,0.0,68,0.00,,,0.00,10.000000,,2013-01-11 17:03:00,
2013-01-11 10:12:00,21.0,12.0,-100.00,NNE,29,0.0,0.0,68,0.00,,,0.00,10.000000,,2013-01-11 17:12:00,
2013-01-11 10:22:00,21.0,12.0,-100.00,NNE,29,0.0,0.0,68,0.00,,,0.00,10.000000,,2013-01-11 17:22:00,
2013-01-11 10:33:00,21.0,12.0,-100.00,NNE,29,0.0,0.0,68,0.00,,,0.00,10.000000,,2013-01-11 17:33:00,
2013-01-11 11:03:00,29.0,17.0,-100.00,SE,145,0.0,0.0,60,0.00,,,0.00,35.000000,,2013-01-11 18:03:00,
2013-01-11 11:42:00,25.0,13.0,-100.00,NNW,338,0.0,0.0,61,-99.99,,,0.00,38.000000,,2013-01-11 18:42:00,
2013-01-11 12:02:00,25.0,13.0,-100.00,NNW,338,0.0,0.0,61,-99.99,,,0.00,38.000000,,2013-01-11 19:02:00,
2013-01-11 12:12:00,25.0,13.0,-100.00,NNW,338,0.0,0.0,61,-99.99,,,0.00,38.000000,,2013-01-11 19:12:00,
2013-01-11 12:22:00,25.0,13.0,-100.00,NNW,338,0.0,0.0,61,-99.99,,,0.00,38.000000,,2013-01-11 19:22:00,
2013-01-11 12:32:00,25.0,13.0,-100.00,NNW,338,0.0,0.0,61,-99.99,,,0.00,38.000000,,2013-01-11 19:32:00,
2013-01-11 12:42:00,24.0,13.0,-100.00,NNW,338,0.0,0.0,61,0.00,,,0.00,57.000000,,2013-01-11 19:42:00,
2013-01-11 13:02:00,24.0,13.0,-100.00,NNW,338,0.0,0.0,61,0.00,,,0.00,57.000000,,2013-01-11 20:02:00,
2013-01-11 13:12:00,24.0,13.0,-100.00,NNW,338,0.0,0.0,61,0.00,,,0.00,57.000000,,2013-01-11 20:12:00,
2013-01-11 13:22:00,24.0,13.0,-100.00,NNW,338,0.0,0.0,61,0.00,,,0.00,57.000000,,2013-01-11 20:22:00,
2013-01-11 13:32:00,24.0,13.0,-100.00,NNW,338,0.0,0.0,61,0.00,,,0.00,57.000000,,2013-01-11 20:32:00,
2013-01-11 13:42:00,30.0,17.0,-100.00,NW,307,3.0,10.0,57,0.01,,,0.01,77.000000,,2013-01-11 20:42:00,
2013-01-11 14:03:00,30.0,17.0,-100.00,NW,307,3.0,10.0,57,0.01,,,0.01,77.000000,,2013-01-11 21:03:00,
2013-01-11 14:12:00,30.0,17.0,-100.00,NW,307,3.0,10.0,57,0.01,,,0.01,77.000000,,2013-01-11 21:12:00,
2013-01-11 14:23:00,30.0,17.0,-100.00,NW,307,3.0,10.0,57,0.01,,,0.01,77.000000,,2013-01-11 21:23:00,
2013-01-11 14:32:00,30.0,17.0,-100.00,NW,307,3.0,10.0,57,0.01,,,0.01,77.000000,,2013-01-11 21:32:00,
2013-01-11 14:42:00,23.0,13.0,-100.00,NNW,333,5.0,12.0,65,0.00,,,0.01,36.000000,,2013-01-11 21:42:00,
2013-01-11 15:02:00,23.0,13.0,-100.00,NNW,333,5.0,12.0,65,0.00,,,0.01,36.000000,,2013-01-11 22:02:00,
2013-01-11 15:12:00,23.0,13.0,-100.00,NNW,333,5.0,12.0,65,0.00,,,0.01,36.000000,,2013-01-11 22:12:00,
2013-01-11 15:22:00,23.0,13.0,-100.00,NNW,333,5.0,12.0,65,0.00,,,0.01,36.000000,,2013-01-11 22:22:00,
2013-01-11 15:32:00,23.0,13.0,-100.00,NNW,333,5.0,12.0,65,0.00,,,0.01,36.000000,,2013-01-11 22:32:00,
2013-01-11 15:42:00,23.0,10.0,-100.00,NW,320,11.0,21.0,58,0.00,,,0.01,43.000000,,2013-01-11 22:42:00,
2013-01-11 16:02:00,23.0,10.0,-100.00,NW,320,11.0,21.0,58,0.00,,,0.01,43.000000,,2013-01-11 23:02:00,
2013-01-11 16:12:00,23.0,10.0,-100.00,NW,320,11.0,21.0,58,0.00,,,0.01,43.000000,,2013-01-11 23:12:00,
2013-01-11 16:22:00,23.0,10.0,-100.00,NW,320,11.0,21.0,58,0.00,,,0.01,43.000000,,2013-01-11 23:22:00,
2013-01-11 16:32:00,23.0,10.0,-100.00,NW,320,11.0,21.0,58,0.00,,,0.01,43.000000,,2013-01-11 23:32:00,
2013-01-11 16:42:00,24.0,10.0,-100.00,NNW,334,10.0,17.0,54,0.00,,,0.01,49.000000,,2013-01-11 23:42:00,
2013-01-11 17:02:00,24.0,10.0,-100.00,NNW,334,10.0,17.0,54,0.00,,,0.01,49.000000,,2013-01-12 00:02:00,
2013-01-11 17:12:00,24.0,10.0,-100.00,NNW,334,10.0,17.0,54,0.00,,,0.01,49.000000,,2013-01-12 00:12:00,
2013-01-11 17:22:00,24.0,10.0,-100.00,NNW,334,10.0,17.0,54,0.00,,,0.01,49.000000,,2013-01-12 00:22:00,
2013-01-11 17:32:00,24.0,10.0,-100.00,NNW,334,10.0,17.0,54,0.00,,,0.01,49.000000,,2013-01-12 00:32:00,
2013-01-11 17:42:00,20.0,8.0,-100.00,NNW,335,8.0,15.0,59,0.00,,,0.01,20.000000,,2013-01-12 00:42:00,
2013-01-11 18:02:00,20.0,8.0,-100.00,NNW,335,8.0,15.0,59,0.00,,,0.01,20.000000,,2013-01-12 01:02:00,
2013-01-11 18:12:00,20.0,8.0,-100.00,NNW,335,8.0,15.0,59,0.00,,,0.01,20.000000,,2013-01-12 01:12:00,
2013-01-11 18:22:00,20.0,8.0,-100.00,NNW,335,8.0,15.0,59,0.00,,,0.01,20.000000,,2013-01-12 01:22:00,
2013-01-11 18:32:00,20.0,8.0,-100.00,NNW,335,8.0,15.0,59,0.00,,,0.01,20.000000,,2013-01-12 01:32:00,
2013-01-11 18:42:00,18.0,8.0,-100.00,WNW,289,2.0,15.0,63,0.00,,,0.01,0.000000,,2013-01-12 01:42:00,
2013-01-11 19:12:00,18.0,8.0,-100.00,WNW,289,2.0,15.0,63,0.00,,,0.01,0.000000,,2013-01-12 02:12:00,
2013-01-11 19:22:00,18.0,8.0,-100.00,WNW,289,2.0,15.0,63,0.00,,,0.01,0.000000,,2013-01-12 02:22:00,
2013-01-11 19:32:00,18.0,8.0,-100.00,WNW,289,2.0,15.0,63,0.00,,,0.01,0.000000,,2013-01-12 02:32:00,
2013-01-11 19:42:00,16.0,7.0,-100.00,South,185,1.0,8.0,67,0.00,,,0.01,0.000000,,2013-01-12 02:42:00,
2013-01-11 20:02:00,16.0,7.0,-100.00,South,185,1.0,8.0,67,0.00,,,0.01,0.000000,,2013-01-12 03:02:00,
2013-01-11 20:12:00,16.0,7.0,-100.00,South,185,1.0,8.0,67,0.00,,,0.01,0.000000,,2013-01-12 03:12:00,
2013-01-11 20:22:00,16.0,7.0,-100.00,South,185,1.0,8.0,67,0.00,,,0.01,0.000000,,2013-01-12 03:22:00,
2013-01-11 20:32:00,16.0,7.0,-100.00,South,185,1.0,8.0,67,0.00,,,0.01,0.000000,,2013-01-12 03:32:00,
2013-01-11 20:42:00,15.0,7.0,-100.00,ESE,106,2.0,10.0,70,0.00,,,0.01,0.000000,,2013-01-12 03:42:00,
2013-01-11 21:02:00,15.0,7.0,-100.00,ESE,106,2.0,10.0,70,0.00,,,0.01,0.000000,,2013-01-12 04:02:00,
2013-01-11 21:12:00,15.0,7.0,-100.00,ESE,106,2.0,10.0,70,0.00,,,0.01,0.000000,,2013-01-12 04:12:00,
2013-01-11 21:22:00,15.0,7.0,-100.00,ESE,106,2.0,10.0,70,0.00,,,0.01,0.000000,,2013-01-12 04:22:00,
2013-01-11 21:32:00,15.0,7.0,-100.00,ESE,106,2.0,10.0,70,0.00,,,0.01,0.000000,,2013-01-12 04:32:00,
2013-01-11 21:42:00,15.0,7.0,-100.00,NW,314,3.0,7.0,69,0.00,,,0.01,0.000000,,2013-01-12 04:42:00,
2013-01-11 22:03:00,15.0,7.0,-100.00,NW,314,3.0,7.0,69,0.00,,,0.01,0.000000,,2013-01-12 05:03:00,
2013-01-11 22:12:00,15.0,7.0,-100.00,NW,314,3.0,7.0,69,0.00,,,0.01,0.000000,,2013-01-12 05:12:00,
2013-01-11 22:22:00,15.0,7.0,-100.00,NW,314,3.0,7.0,69,0.00,,,0.01,0.000000,,2013-01-12 05:22:00,
2013-01-11 22:32:00,15.0,7.0,-100.00,NW,314,3.0,7.0,69,0.00,,,0.01,0.000000,,2013-01-12 05:32:00,
2013-01-11 22:42:00,15.0,6.0,-100.00,SW,223,3.0,8.0,67,0.00,,,0.01,0.000000,,2013-01-12 05:42:00,
2013-01-11 23:02:00,15.0,6.0,-100.00,SW,223,3.0,8.0,67,0.00,,,0.01,0.000000,,2013-01-12 06:02:00,
2013-01-11 23:12:00,15.0,6.0,-100.00,SW,223,3.0,8.0,67,0.00,,,0.01,0.000000,,2013-01-12 06:12:00,
2013-01-11 23:22:00,15.0,6.0,-100.00,SW,223,3.0,8.0,67,0.00,,,0.01,0.000000,,2013-01-12 06:22:00,
2013-01-11 23:32:00,15.0,6.0,-100.00,SW,223,3.0,8.0,67,0.00,,,0.01,0.000000,,2013-01-12 06:32:00,
2013-01-11 23:42:00,14.0,7.0,-100.00,ENE,57,4.0,7.0,72,0.00,,,0.01,0.000000,,2013-01-12 06:42:00,